sensor_id;sensor_type;location;lat;lon;timestamp;P1;durP1;ratioP1;P2;durP2;ratioP2
13698;SDS011;6921;53.642;9.956;2023-07-20T00:01:55;4.07;;;3.10;;
13698;SDS011;6921;53.642;9.956;2023-07-20T00:03:58;3.33;;;3.03;;
13698;SDS011;6921;53.642;9.956;2023-07-20T00:06:01;3.35;;;3.05;;
13698;SDS011;6921;53.642;9.956;2023-07-20T00:08:06;3.80;;;2.90;;
13698;SDS011;6921;53.642;9.956;2023-07-20T00:10:09;4.55;;;2.70;;
13698;SDS011;6921;53.642;9.956;2023-07-20T00:12:14;3.25;;;2.95;;
13698;SDS011;6921;53.642;9.956;2023-07-20T00:14:17;2.40;;;2.20;;
13698;SDS011;6921;53.642;9.956;2023-07-20T00:16:21;3.72;;;2.65;;
13698;SDS011;6921;53.642;9.956;2023-07-20T00:18:30;3.78;;;2.70;;
13698;SDS011;6921;53.642;9.956;2023-07-20T00:20:33;3.25;;;2.70;;
13698;SDS011;6921;53.642;9.956;2023-07-20T00:22:36;3.35;;;2.95;;
13698;SDS011;6921;53.642;9.956;2023-07-20T00:24:39;2.38;;;2.13;;
13698;SDS011;6921;53.642;9.956;2023-07-20T00:26:42;2.47;;;2.28;;
13698;SDS011;6921;53.642;9.956;2023-07-20T00:28:45;3.83;;;2.58;;
13698;SDS011;6921;53.642;9.956;2023-07-20T00:30:48;3.88;;;3.45;;
13698;SDS011;6921;53.642;9.956;2023-07-20T00:32:51;2.97;;;2.70;;
13698;SDS011;6921;53.642;9.956;2023-07-20T00:34:56;4.28;;;3.05;;
13698;SDS011;6921;53.642;9.956;2023-07-20T00:37:00;3.90;;;2.95;;
13698;SDS011;6921;53.642;9.956;2023-07-20T00:39:03;4.10;;;2.80;;
13698;SDS011;6921;53.642;9.956;2023-07-20T00:41:08;3.05;;;2.80;;
13698;SDS011;6921;53.642;9.956;2023-07-20T00:43:11;3.35;;;3.05;;
13698;SDS011;6921;53.642;9.956;2023-07-20T00:45:15;3.92;;;3.13;;
13698;SDS011;6921;53.642;9.956;2023-07-20T00:47:21;5.22;;;3.20;;
13698;SDS011;6921;53.642;9.956;2023-07-20T00:49:24;3.67;;;3.22;;
13698;SDS011;6921;53.642;9.956;2023-07-20T00:51:29;3.58;;;3.20;;
13698;SDS011;6921;53.642;9.956;2023-07-20T00:53:31;4.60;;;4.20;;
13698;SDS011;6921;53.642;9.956;2023-07-20T00:55:35;6.07;;;3.67;;
13698;SDS011;6921;53.642;9.956;2023-07-20T00:57:39;3.90;;;3.50;;
13698;SDS011;6921;53.642;9.956;2023-07-20T00:59:42;4.95;;;4.40;;
13698;SDS011;6921;53.642;9.956;2023-07-20T01:01:46;4.30;;;3.88;;
13698;SDS011;6921;53.642;9.956;2023-07-20T01:03:50;5.25;;;4.50;;
13698;SDS011;6921;53.642;9.956;2023-07-20T01:06:03;5.47;;;4.35;;
13698;SDS011;6921;53.642;9.956;2023-07-20T01:08:15;5.72;;;4.40;;
13698;SDS011;6921;53.642;9.956;2023-07-20T01:10:28;6.50;;;4.90;;
13698;SDS011;6921;53.642;9.956;2023-07-20T01:12:41;5.10;;;4.60;;
13698;SDS011;6921;53.642;9.956;2023-07-20T01:14:45;5.75;;;5.07;;
13698;SDS011;6921;53.642;9.956;2023-07-20T01:16:49;7.32;;;5.32;;
13698;SDS011;6921;53.642;9.956;2023-07-20T01:18:54;7.70;;;4.93;;
13698;SDS011;6921;53.642;9.956;2023-07-20T01:20:59;6.60;;;5.85;;
13698;SDS011;6921;53.642;9.956;2023-07-20T01:25:44;6.57;;;5.72;;
13698;SDS011;6921;53.642;9.956;2023-07-20T01:28:12;7.07;;;6.07;;
13698;SDS011;6921;53.642;9.956;2023-07-20T01:30:46;10.15;;;5.55;;
13698;SDS011;6921;53.642;9.956;2023-07-20T01:32:59;7.63;;;5.55;;
13698;SDS011;6921;53.642;9.956;2023-07-20T01:35:03;7.82;;;6.00;;
13698;SDS011;6921;53.642;9.956;2023-07-20T01:37:10;6.95;;;6.25;;
13698;SDS011;6921;53.642;9.956;2023-07-20T01:39:14;6.32;;;5.72;;
13698;SDS011;6921;53.642;9.956;2023-07-20T01:41:17;7.05;;;6.28;;
13698;SDS011;6921;53.642;9.956;2023-07-20T01:43:20;6.40;;;5.80;;
13698;SDS011;6921;53.642;9.956;2023-07-20T01:45:24;8.25;;;6.35;;
13698;SDS011;6921;53.642;9.956;2023-07-20T01:47:28;7.93;;;6.68;;
13698;SDS011;6921;53.642;9.956;2023-07-20T01:49:33;6.80;;;6.10;;
13698;SDS011;6921;53.642;9.956;2023-07-20T01:51:36;7.65;;;6.38;;
13698;SDS011;6921;53.642;9.956;2023-07-20T01:53:40;10.05;;;6.43;;
13698;SDS011;6921;53.642;9.956;2023-07-20T01:55:43;8.38;;;6.65;;
13698;SDS011;6921;53.642;9.956;2023-07-20T01:57:47;9.57;;;6.97;;
13698;SDS011;6921;53.642;9.956;2023-07-20T01:59:51;9.25;;;6.70;;
13698;SDS011;6921;53.642;9.956;2023-07-20T02:01:53;8.30;;;5.97;;
13698;SDS011;6921;53.642;9.956;2023-07-20T02:03:56;8.00;;;6.57;;
13698;SDS011;6921;53.642;9.956;2023-07-20T02:06:01;7.82;;;6.88;;
13698;SDS011;6921;53.642;9.956;2023-07-20T02:08:05;9.02;;;7.35;;
13698;SDS011;6921;53.642;9.956;2023-07-20T02:10:08;8.30;;;6.68;;
13698;SDS011;6921;53.642;9.956;2023-07-20T02:12:15;7.63;;;6.75;;
13698;SDS011;6921;53.642;9.956;2023-07-20T02:14:19;10.23;;;7.20;;
13698;SDS011;6921;53.642;9.956;2023-07-20T02:16:24;9.18;;;7.60;;
13698;SDS011;6921;53.642;9.956;2023-07-20T02:18:31;9.55;;;7.13;;
13698;SDS011;6921;53.642;9.956;2023-07-20T02:20:34;8.60;;;6.90;;
13698;SDS011;6921;53.642;9.956;2023-07-20T02:22:39;8.40;;;7.40;;
13698;SDS011;6921;53.642;9.956;2023-07-20T02:24:42;10.70;;;7.72;;
13698;SDS011;6921;53.642;9.956;2023-07-20T02:26:46;9.43;;;7.93;;
13698;SDS011;6921;53.642;9.956;2023-07-20T02:28:50;8.98;;;7.63;;
13698;SDS011;6921;53.642;9.956;2023-07-20T02:30:53;9.65;;;8.07;;
13698;SDS011;6921;53.642;9.956;2023-07-20T02:32:57;9.18;;;7.22;;
13698;SDS011;6921;53.642;9.956;2023-07-20T02:35:00;10.93;;;8.30;;
13698;SDS011;6921;53.642;9.956;2023-07-20T02:37:06;8.88;;;7.68;;
13698;SDS011;6921;53.642;9.956;2023-07-20T02:39:13;10.07;;;7.93;;
13698;SDS011;6921;53.642;9.956;2023-07-20T02:41:16;9.10;;;8.05;;
13698;SDS011;6921;53.642;9.956;2023-07-20T02:43:20;10.82;;;8.25;;
13698;SDS011;6921;53.642;9.956;2023-07-20T02:45:24;9.18;;;8.20;;
13698;SDS011;6921;53.642;9.956;2023-07-20T02:47:28;10.73;;;8.07;;
13698;SDS011;6921;53.642;9.956;2023-07-20T02:49:30;10.68;;;8.30;;
13698;SDS011;6921;53.642;9.956;2023-07-20T02:51:34;11.25;;;8.20;;
13698;SDS011;6921;53.642;9.956;2023-07-20T02:53:38;10.60;;;8.02;;
13698;SDS011;6921;53.642;9.956;2023-07-20T02:55:44;9.20;;;8.25;;
13698;SDS011;6921;53.642;9.956;2023-07-20T02:57:49;8.57;;;7.55;;
13698;SDS011;6921;53.642;9.956;2023-07-20T02:59:52;9.88;;;8.40;;
13698;SDS011;6921;53.642;9.956;2023-07-20T03:01:59;11.05;;;8.80;;
13698;SDS011;6921;53.642;9.956;2023-07-20T03:04:05;11.00;;;9.23;;
13698;SDS011;6921;53.642;9.956;2023-07-20T03:06:09;9.85;;;8.85;;
13698;SDS011;6921;53.642;9.956;2023-07-20T03:08:12;10.88;;;9.20;;
13698;SDS011;6921;53.642;9.956;2023-07-20T03:10:15;11.23;;;9.55;;
13698;SDS011;6921;53.642;9.956;2023-07-20T03:12:19;12.27;;;10.38;;
13698;SDS011;6921;53.642;9.956;2023-07-20T03:14:23;10.73;;;9.50;;
13698;SDS011;6921;53.642;9.956;2023-07-20T03:16:26;12.23;;;10.40;;
13698;SDS011;6921;53.642;9.956;2023-07-20T03:18:30;9.77;;;8.77;;
13698;SDS011;6921;53.642;9.956;2023-07-20T03:20:35;11.90;;;9.38;;
13698;SDS011;6921;53.642;9.956;2023-07-20T03:22:38;13.35;;;10.13;;
13698;SDS011;6921;53.642;9.956;2023-07-20T03:24:45;12.40;;;9.88;;
13698;SDS011;6921;53.642;9.956;2023-07-20T03:26:50;10.40;;;8.57;;
13698;SDS011;6921;53.642;9.956;2023-07-20T03:28:56;12.38;;;8.82;;
13698;SDS011;6921;53.642;9.956;2023-07-20T03:30:59;10.23;;;8.60;;
13698;SDS011;6921;53.642;9.956;2023-07-20T03:33:03;9.95;;;8.77;;
13698;SDS011;6921;53.642;9.956;2023-07-20T03:35:08;12.10;;;9.02;;
13698;SDS011;6921;53.642;9.956;2023-07-20T03:37:12;10.52;;;8.68;;
13698;SDS011;6921;53.642;9.956;2023-07-20T03:39:16;9.38;;;8.35;;
13698;SDS011;6921;53.642;9.956;2023-07-20T03:41:19;9.82;;;8.55;;
13698;SDS011;6921;53.642;9.956;2023-07-20T03:43:27;10.68;;;8.18;;
13698;SDS011;6921;53.642;9.956;2023-07-20T03:45:32;10.20;;;8.55;;
13698;SDS011;6921;53.642;9.956;2023-07-20T03:47:35;9.70;;;8.07;;
13698;SDS011;6921;53.642;9.956;2023-07-20T03:49:39;11.05;;;8.32;;
13698;SDS011;6921;53.642;9.956;2023-07-20T03:51:42;10.10;;;7.95;;
13698;SDS011;6921;53.642;9.956;2023-07-20T03:53:47;9.45;;;7.68;;
13698;SDS011;6921;53.642;9.956;2023-07-20T03:55:51;9.02;;;7.70;;
13698;SDS011;6921;53.642;9.956;2023-07-20T03:57:56;9.85;;;7.63;;
13698;SDS011;6921;53.642;9.956;2023-07-20T04:00:01;9.50;;;8.13;;
13698;SDS011;6921;53.642;9.956;2023-07-20T04:02:09;11.05;;;8.70;;
13698;SDS011;6921;53.642;9.956;2023-07-20T04:04:15;8.75;;;7.57;;
13698;SDS011;6921;53.642;9.956;2023-07-20T04:06:19;9.02;;;8.02;;
13698;SDS011;6921;53.642;9.956;2023-07-20T04:08:23;8.95;;;7.30;;
13698;SDS011;6921;53.642;9.956;2023-07-20T04:10:25;8.32;;;7.40;;
13698;SDS011;6921;53.642;9.956;2023-07-20T04:12:29;10.20;;;7.68;;
13698;SDS011;6921;53.642;9.956;2023-07-20T04:14:32;8.90;;;7.80;;
13698;SDS011;6921;53.642;9.956;2023-07-20T04:16:36;11.10;;;7.90;;
13698;SDS011;6921;53.642;9.956;2023-07-20T04:18:41;7.72;;;6.93;;
13698;SDS011;6921;53.642;9.956;2023-07-20T04:20:45;8.88;;;7.97;;
13698;SDS011;6921;53.642;9.956;2023-07-20T04:22:48;8.20;;;7.40;;
13698;SDS011;6921;53.642;9.956;2023-07-20T04:24:52;8.50;;;7.22;;
13698;SDS011;6921;53.642;9.956;2023-07-20T04:26:55;7.63;;;6.63;;
13698;SDS011;6921;53.642;9.956;2023-07-20T04:28:58;7.72;;;6.93;;
13698;SDS011;6921;53.642;9.956;2023-07-20T04:31:09;7.60;;;6.80;;
13698;SDS011;6921;53.642;9.956;2023-07-20T04:33:13;8.27;;;7.05;;
13698;SDS011;6921;53.642;9.956;2023-07-20T04:35:26;7.65;;;6.95;;
13698;SDS011;6921;53.642;9.956;2023-07-20T04:37:51;8.23;;;6.75;;
13698;SDS011;6921;53.642;9.956;2023-07-20T04:39:55;6.55;;;5.85;;
13698;SDS011;6921;53.642;9.956;2023-07-20T04:41:59;6.60;;;5.80;;
13698;SDS011;6921;53.642;9.956;2023-07-20T04:44:02;8.80;;;6.72;;
13698;SDS011;6921;53.642;9.956;2023-07-20T04:46:06;7.18;;;5.72;;
13698;SDS011;6921;53.642;9.956;2023-07-20T04:48:11;6.70;;;6.07;;
13698;SDS011;6921;53.642;9.956;2023-07-20T04:50:15;7.40;;;5.75;;
13698;SDS011;6921;53.642;9.956;2023-07-20T04:52:20;7.70;;;5.97;;
13698;SDS011;6921;53.642;9.956;2023-07-20T04:54:37;7.47;;;5.75;;
13698;SDS011;6921;53.642;9.956;2023-07-20T04:56:42;6.97;;;6.25;;
13698;SDS011;6921;53.642;9.956;2023-07-20T04:58:45;6.47;;;5.65;;
13698;SDS011;6921;53.642;9.956;2023-07-20T05:00:49;8.15;;;6.25;;
13698;SDS011;6921;53.642;9.956;2023-07-20T05:02:52;7.13;;;6.43;;
13698;SDS011;6921;53.642;9.956;2023-07-20T05:04:56;7.05;;;6.05;;
13698;SDS011;6921;53.642;9.956;2023-07-20T05:07:00;7.47;;;6.00;;
13698;SDS011;6921;53.642;9.956;2023-07-20T05:09:06;7.45;;;5.90;;
13698;SDS011;6921;53.642;9.956;2023-07-20T05:11:11;6.28;;;5.68;;
13698;SDS011;6921;53.642;9.956;2023-07-20T05:13:17;6.43;;;5.70;;
13698;SDS011;6921;53.642;9.956;2023-07-20T05:15:21;6.07;;;5.35;;
13698;SDS011;6921;53.642;9.956;2023-07-20T05:17:24;9.68;;;6.22;;
13698;SDS011;6921;53.642;9.956;2023-07-20T05:19:28;7.85;;;6.00;;
13698;SDS011;6921;53.642;9.956;2023-07-20T05:21:32;6.07;;;5.47;;
13698;SDS011;6921;53.642;9.956;2023-07-20T05:23:35;7.30;;;5.95;;
13698;SDS011;6921;53.642;9.956;2023-07-20T05:25:43;6.72;;;5.07;;
13698;SDS011;6921;53.642;9.956;2023-07-20T05:27:46;5.85;;;5.28;;
13698;SDS011;6921;53.642;9.956;2023-07-20T05:29:53;6.53;;;5.30;;
13698;SDS011;6921;53.642;9.956;2023-07-20T05:31:57;6.57;;;5.90;;
13698;SDS011;6921;53.642;9.956;2023-07-20T05:34:02;6.22;;;5.20;;
13698;SDS011;6921;53.642;9.956;2023-07-20T05:36:06;6.03;;;5.15;;
13698;SDS011;6921;53.642;9.956;2023-07-20T05:38:11;5.38;;;4.50;;
13698;SDS011;6921;53.642;9.956;2023-07-20T05:40:15;6.07;;;4.90;;
13698;SDS011;6921;53.642;9.956;2023-07-20T05:42:24;6.25;;;5.18;;
13698;SDS011;6921;53.642;9.956;2023-07-20T05:44:28;5.90;;;4.65;;
13698;SDS011;6921;53.642;9.956;2023-07-20T05:46:42;7.03;;;4.93;;
13698;SDS011;6921;53.642;9.956;2023-07-20T05:48:57;5.65;;;4.70;;
13698;SDS011;6921;53.642;9.956;2023-07-20T05:51:01;6.07;;;4.70;;
13698;SDS011;6921;53.642;9.956;2023-07-20T05:53:04;5.75;;;4.82;;
13698;SDS011;6921;53.642;9.956;2023-07-20T05:55:09;5.95;;;4.78;;
13698;SDS011;6921;53.642;9.956;2023-07-20T05:57:14;6.53;;;5.32;;
13698;SDS011;6921;53.642;9.956;2023-07-20T05:59:18;5.65;;;4.72;;
13698;SDS011;6921;53.642;9.956;2023-07-20T06:01:22;4.85;;;4.45;;
13698;SDS011;6921;53.642;9.956;2023-07-20T06:03:29;5.25;;;4.57;;
13698;SDS011;6921;53.642;9.956;2023-07-20T06:05:32;4.45;;;4.05;;
13698;SDS011;6921;53.642;9.956;2023-07-20T06:07:36;5.55;;;4.25;;
13698;SDS011;6921;53.642;9.956;2023-07-20T06:09:39;5.25;;;4.75;;
13698;SDS011;6921;53.642;9.956;2023-07-20T06:11:43;4.80;;;4.30;;
13698;SDS011;6921;53.642;9.956;2023-07-20T06:13:47;5.05;;;3.95;;
13698;SDS011;6921;53.642;9.956;2023-07-20T06:15:53;5.75;;;4.30;;
13698;SDS011;6921;53.642;9.956;2023-07-20T06:17:57;3.80;;;3.50;;
13698;SDS011;6921;53.642;9.956;2023-07-20T06:20:04;4.22;;;3.03;;
13698;SDS011;6921;53.642;9.956;2023-07-20T06:22:11;5.25;;;2.85;;
13698;SDS011;6921;53.642;9.956;2023-07-20T06:24:16;3.05;;;2.75;;
13698;SDS011;6921;53.642;9.956;2023-07-20T06:26:20;4.18;;;2.88;;
13698;SDS011;6921;53.642;9.956;2023-07-20T06:28:24;4.07;;;2.50;;
13698;SDS011;6921;53.642;9.956;2023-07-20T06:30:27;3.00;;;2.30;;
13698;SDS011;6921;53.642;9.956;2023-07-20T06:32:32;3.53;;;2.35;;
13698;SDS011;6921;53.642;9.956;2023-07-20T06:34:38;2.72;;;2.20;;
13698;SDS011;6921;53.642;9.956;2023-07-20T06:36:42;2.75;;;2.55;;
13698;SDS011;6921;53.642;9.956;2023-07-20T06:38:46;4.10;;;2.33;;
13698;SDS011;6921;53.642;9.956;2023-07-20T06:40:52;4.65;;;2.30;;
13698;SDS011;6921;53.642;9.956;2023-07-20T06:42:57;2.55;;;2.30;;
13698;SDS011;6921;53.642;9.956;2023-07-20T06:45:03;3.90;;;1.88;;
13698;SDS011;6921;53.642;9.956;2023-07-20T06:47:09;3.67;;;2.28;;
13698;SDS011;6921;53.642;9.956;2023-07-20T06:49:24;2.33;;;2.00;;
13698;SDS011;6921;53.642;9.956;2023-07-20T06:51:27;4.22;;;1.83;;
13698;SDS011;6921;53.642;9.956;2023-07-20T06:53:30;2.97;;;1.80;;
13698;SDS011;6921;53.642;9.956;2023-07-20T06:55:35;3.47;;;1.60;;
13698;SDS011;6921;53.642;9.956;2023-07-20T06:57:41;2.35;;;1.60;;
13698;SDS011;6921;53.642;9.956;2023-07-20T06:59:45;5.15;;;1.95;;
13698;SDS011;6921;53.642;9.956;2023-07-20T07:01:49;1.80;;;1.52;;
13698;SDS011;6921;53.642;9.956;2023-07-20T07:03:52;2.33;;;1.50;;
13698;SDS011;6921;53.642;9.956;2023-07-20T07:05:58;2.58;;;1.40;;
13698;SDS011;6921;53.642;9.956;2023-07-20T07:08:00;2.63;;;1.55;;
13698;SDS011;6921;53.642;9.956;2023-07-20T07:10:04;2.83;;;1.60;;
13698;SDS011;6921;53.642;9.956;2023-07-20T07:12:08;4.03;;;1.70;;
13698;SDS011;6921;53.642;9.956;2023-07-20T07:14:13;1.75;;;1.50;;
13698;SDS011;6921;53.642;9.956;2023-07-20T07:16:15;2.38;;;1.60;;
13698;SDS011;6921;53.642;9.956;2023-07-20T07:18:21;2.40;;;1.60;;
13698;SDS011;6921;53.642;9.956;2023-07-20T07:20:26;3.10;;;1.30;;
13698;SDS011;6921;53.642;9.956;2023-07-20T07:22:31;4.35;;;1.80;;
13698;SDS011;6921;53.642;9.956;2023-07-20T07:24:35;4.45;;;1.58;;
13698;SDS011;6921;53.642;9.956;2023-07-20T07:26:39;4.40;;;1.98;;
13698;SDS011;6921;53.642;9.956;2023-07-20T07:28:41;3.28;;;1.70;;
13698;SDS011;6921;53.642;9.956;2023-07-20T07:30:44;3.08;;;1.80;;
13698;SDS011;6921;53.642;9.956;2023-07-20T07:32:48;2.78;;;1.75;;
13698;SDS011;6921;53.642;9.956;2023-07-20T07:34:53;2.95;;;1.60;;
13698;SDS011;6921;53.642;9.956;2023-07-20T07:36:57;2.80;;;1.60;;
13698;SDS011;6921;53.642;9.956;2023-07-20T07:39:02;5.07;;;1.90;;
13698;SDS011;6921;53.642;9.956;2023-07-20T07:41:08;5.07;;;1.90;;
13698;SDS011;6921;53.642;9.956;2023-07-20T07:43:11;4.95;;;2.00;;
13698;SDS011;6921;53.642;9.956;2023-07-20T07:45:15;2.15;;;1.95;;
13698;SDS011;6921;53.642;9.956;2023-07-20T07:47:19;2.88;;;1.80;;
13698;SDS011;6921;53.642;9.956;2023-07-20T07:49:22;3.33;;;1.98;;
13698;SDS011;6921;53.642;9.956;2023-07-20T07:51:25;2.00;;;1.60;;
13698;SDS011;6921;53.642;9.956;2023-07-20T07:53:29;1.75;;;1.60;;
13698;SDS011;6921;53.642;9.956;2023-07-20T07:55:35;1.80;;;1.48;;
13698;SDS011;6921;53.642;9.956;2023-07-20T07:57:38;2.25;;;1.75;;
13698;SDS011;6921;53.642;9.956;2023-07-20T07:59:41;5.35;;;1.85;;
13698;SDS011;6921;53.642;9.956;2023-07-20T08:01:46;5.45;;;2.78;;
13698;SDS011;6921;53.642;9.956;2023-07-20T08:03:50;4.07;;;2.33;;
13698;SDS011;6921;53.642;9.956;2023-07-20T08:05:54;4.95;;;2.53;;
13698;SDS011;6921;53.642;9.956;2023-07-20T08:07:57;5.53;;;2.50;;
13698;SDS011;6921;53.642;9.956;2023-07-20T08:10:05;5.20;;;2.60;;
13698;SDS011;6921;53.642;9.956;2023-07-20T08:12:15;5.90;;;2.38;;
13698;SDS011;6921;53.642;9.956;2023-07-20T08:14:20;4.03;;;2.30;;
13698;SDS011;6921;53.642;9.956;2023-07-20T08:16:24;3.10;;;2.08;;
13698;SDS011;6921;53.642;9.956;2023-07-20T08:18:28;3.95;;;2.30;;
13698;SDS011;6921;53.642;9.956;2023-07-20T08:20:32;4.70;;;2.00;;
13698;SDS011;6921;53.642;9.956;2023-07-20T08:22:37;3.90;;;1.95;;
13698;SDS011;6921;53.642;9.956;2023-07-20T08:24:40;5.95;;;2.25;;
13698;SDS011;6921;53.642;9.956;2023-07-20T08:26:44;3.95;;;1.83;;
13698;SDS011;6921;53.642;9.956;2023-07-20T08:28:48;7.45;;;2.00;;
13698;SDS011;6921;53.642;9.956;2023-07-20T08:30:52;5.50;;;1.75;;
13698;SDS011;6921;53.642;9.956;2023-07-20T08:32:55;4.25;;;1.70;;
13698;SDS011;6921;53.642;9.956;2023-07-20T08:34:58;4.35;;;1.80;;
13698;SDS011;6921;53.642;9.956;2023-07-20T08:37:02;4.15;;;1.67;;
13698;SDS011;6921;53.642;9.956;2023-07-20T08:39:06;3.63;;;1.60;;
13698;SDS011;6921;53.642;9.956;2023-07-20T08:41:09;4.82;;;1.70;;
13698;SDS011;6921;53.642;9.956;2023-07-20T08:43:13;3.08;;;1.40;;
13698;SDS011;6921;53.642;9.956;2023-07-20T08:45:21;5.30;;;1.50;;
13698;SDS011;6921;53.642;9.956;2023-07-20T08:47:27;6.03;;;1.98;;
13698;SDS011;6921;53.642;9.956;2023-07-20T08:49:31;4.93;;;1.40;;
13698;SDS011;6921;53.642;9.956;2023-07-20T08:51:34;3.50;;;1.50;;
13698;SDS011;6921;53.642;9.956;2023-07-20T08:53:38;3.75;;;1.50;;
13698;SDS011;6921;53.642;9.956;2023-07-20T08:55:42;3.13;;;1.95;;
13698;SDS011;6921;53.642;9.956;2023-07-20T08:57:48;5.32;;;2.10;;
13698;SDS011;6921;53.642;9.956;2023-07-20T08:59:54;4.18;;;2.13;;
13698;SDS011;6921;53.642;9.956;2023-07-20T09:01:59;4.63;;;1.90;;
13698;SDS011;6921;53.642;9.956;2023-07-20T09:04:04;3.60;;;1.92;;
13698;SDS011;6921;53.642;9.956;2023-07-20T09:06:08;2.72;;;1.80;;
13698;SDS011;6921;53.642;9.956;2023-07-20T09:08:11;6.90;;;1.98;;
13698;SDS011;6921;53.642;9.956;2023-07-20T09:10:14;2.92;;;1.48;;
13698;SDS011;6921;53.642;9.956;2023-07-20T09:12:17;3.15;;;1.13;;
13698;SDS011;6921;53.642;9.956;2023-07-20T09:14:20;4.68;;;1.58;;
13698;SDS011;6921;53.642;9.956;2023-07-20T09:16:27;2.17;;;1.02;;
13698;SDS011;6921;53.642;9.956;2023-07-20T09:18:32;2.95;;;1.05;;
13698;SDS011;6921;53.642;9.956;2023-07-20T09:20:37;4.07;;;1.13;;
13698;SDS011;6921;53.642;9.956;2023-07-20T09:22:41;1.25;;;1.10;;
13698;SDS011;6921;53.642;9.956;2023-07-20T09:24:46;3.65;;;1.35;;
13698;SDS011;6921;53.642;9.956;2023-07-20T09:26:50;3.85;;;1.40;;
13698;SDS011;6921;53.642;9.956;2023-07-20T09:28:54;2.95;;;1.35;;
13698;SDS011;6921;53.642;9.956;2023-07-20T09:30:58;1.17;;;1.08;;
13698;SDS011;6921;53.642;9.956;2023-07-20T09:33:18;3.05;;;1.48;;
13698;SDS011;6921;53.642;9.956;2023-07-20T09:35:28;2.42;;;1.20;;
13698;SDS011;6921;53.642;9.956;2023-07-20T09:37:46;1.70;;;1.00;;
13698;SDS011;6921;53.642;9.956;2023-07-20T09:40:14;4.97;;;1.48;;
13698;SDS011;6921;53.642;9.956;2023-07-20T09:42:20;3.38;;;1.02;;
13698;SDS011;6921;53.642;9.956;2023-07-20T09:44:29;1.98;;;1.05;;
13698;SDS011;6921;53.642;9.956;2023-07-20T09:46:41;2.17;;;0.90;;
13698;SDS011;6921;53.642;9.956;2023-07-20T09:48:51;1.58;;;1.05;;
13698;SDS011;6921;53.642;9.956;2023-07-20T09:51:02;2.67;;;0.70;;
13698;SDS011;6921;53.642;9.956;2023-07-20T09:53:09;1.73;;;1.00;;
13698;SDS011;6921;53.642;9.956;2023-07-20T09:55:15;1.63;;;0.95;;
13698;SDS011;6921;53.642;9.956;2023-07-20T09:57:20;1.73;;;0.80;;
13698;SDS011;6921;53.642;9.956;2023-07-20T09:59:23;3.08;;;1.15;;
13698;SDS011;6921;53.642;9.956;2023-07-20T10:01:28;1.92;;;0.80;;
13698;SDS011;6921;53.642;9.956;2023-07-20T10:03:32;3.13;;;0.77;;
13698;SDS011;6921;53.642;9.956;2023-07-20T10:05:39;1.55;;;0.80;;
13698;SDS011;6921;53.642;9.956;2023-07-20T10:07:49;1.85;;;0.63;;
13698;SDS011;6921;53.642;9.956;2023-07-20T10:10:14;4.70;;;0.90;;
13698;SDS011;6921;53.642;9.956;2023-07-20T10:12:18;1.27;;;0.85;;
13698;SDS011;6921;53.642;9.956;2023-07-20T10:14:24;2.03;;;0.75;;
13698;SDS011;6921;53.642;9.956;2023-07-20T10:16:35;2.83;;;0.50;;
13698;SDS011;6921;53.642;9.956;2023-07-20T10:18:43;1.50;;;0.40;;
13698;SDS011;6921;53.642;9.956;2023-07-20T10:20:53;2.88;;;0.90;;
13698;SDS011;6921;53.642;9.956;2023-07-20T10:23:01;4.30;;;0.82;;
13698;SDS011;6921;53.642;9.956;2023-07-20T10:25:07;2.67;;;0.85;;
13698;SDS011;6921;53.642;9.956;2023-07-20T10:27:10;1.33;;;0.65;;
13698;SDS011;6921;53.642;9.956;2023-07-20T10:29:15;1.90;;;0.80;;
13698;SDS011;6921;53.642;9.956;2023-07-20T10:31:20;2.83;;;1.02;;
13698;SDS011;6921;53.642;9.956;2023-07-20T10:33:25;3.13;;;0.90;;
13698;SDS011;6921;53.642;9.956;2023-07-20T10:35:28;1.65;;;0.80;;
13698;SDS011;6921;53.642;9.956;2023-07-20T10:37:51;4.57;;;0.90;;
13698;SDS011;6921;53.642;9.956;2023-07-20T10:39:56;2.17;;;0.88;;
13698;SDS011;6921;53.642;9.956;2023-07-20T10:41:59;3.50;;;0.60;;
13698;SDS011;6921;53.642;9.956;2023-07-20T10:44:05;4.68;;;0.93;;
13698;SDS011;6921;53.642;9.956;2023-07-20T10:46:11;2.38;;;1.02;;
13698;SDS011;6921;53.642;9.956;2023-07-20T10:48:15;3.70;;;0.80;;
13698;SDS011;6921;53.642;9.956;2023-07-20T10:50:21;2.88;;;0.90;;
13698;SDS011;6921;53.642;9.956;2023-07-20T10:52:25;1.73;;;0.70;;
13698;SDS011;6921;53.642;9.956;2023-07-20T10:56:54;2.53;;;0.70;;
13698;SDS011;6921;53.642;9.956;2023-07-20T10:59:00;3.13;;;0.88;;
13698;SDS011;6921;53.642;9.956;2023-07-20T11:01:20;2.20;;;1.00;;
13698;SDS011;6921;53.642;9.956;2023-07-20T11:03:27;4.00;;;1.20;;
13698;SDS011;6921;53.642;9.956;2023-07-20T11:05:34;3.58;;;0.88;;
13698;SDS011;6921;53.642;9.956;2023-07-20T11:07:39;3.28;;;0.80;;
13698;SDS011;6921;53.642;9.956;2023-07-20T11:09:43;2.05;;;0.82;;
13698;SDS011;6921;53.642;9.956;2023-07-20T11:11:49;2.33;;;1.02;;
13698;SDS011;6921;53.642;9.956;2023-07-20T11:13:57;2.63;;;0.85;;
13698;SDS011;6921;53.642;9.956;2023-07-20T11:16:02;2.42;;;1.00;;
13698;SDS011;6921;53.642;9.956;2023-07-20T11:18:11;3.88;;;1.13;;
13698;SDS011;6921;53.642;9.956;2023-07-20T11:20:15;3.50;;;1.25;;
13698;SDS011;6921;53.642;9.956;2023-07-20T11:22:22;2.80;;;0.90;;
13698;SDS011;6921;53.642;9.956;2023-07-20T11:24:25;4.93;;;1.75;;
13698;SDS011;6921;53.642;9.956;2023-07-20T11:26:29;1.33;;;0.65;;
13698;SDS011;6921;53.642;9.956;2023-07-20T11:28:33;0.70;;;0.70;;
13698;SDS011;6921;53.642;9.956;2023-07-20T11:30:39;1.95;;;0.70;;
13698;SDS011;6921;53.642;9.956;2023-07-20T11:32:47;3.05;;;0.80;;
13698;SDS011;6921;53.642;9.956;2023-07-20T11:34:51;1.85;;;0.60;;
13698;SDS011;6921;53.642;9.956;2023-07-20T11:36:54;2.22;;;0.63;;
13698;SDS011;6921;53.642;9.956;2023-07-20T11:39:01;1.92;;;0.47;;
13698;SDS011;6921;53.642;9.956;2023-07-20T11:41:06;1.45;;;0.60;;
13698;SDS011;6921;53.642;9.956;2023-07-20T11:43:09;1.73;;;0.57;;
13698;SDS011;6921;53.642;9.956;2023-07-20T11:45:19;2.35;;;0.50;;
13698;SDS011;6921;53.642;9.956;2023-07-20T11:47:24;1.38;;;0.60;;
13698;SDS011;6921;53.642;9.956;2023-07-20T11:49:34;2.03;;;0.70;;
13698;SDS011;6921;53.642;9.956;2023-07-20T11:51:39;3.08;;;0.80;;
13698;SDS011;6921;53.642;9.956;2023-07-20T11:53:44;3.42;;;0.60;;
13698;SDS011;6921;53.642;9.956;2023-07-20T11:55:47;1.77;;;0.60;;
13698;SDS011;6921;53.642;9.956;2023-07-20T11:58:00;2.55;;;0.70;;
13698;SDS011;6921;53.642;9.956;2023-07-20T12:00:06;6.28;;;0.90;;
13698;SDS011;6921;53.642;9.956;2023-07-20T12:02:12;4.72;;;0.93;;
13698;SDS011;6921;53.642;9.956;2023-07-20T12:04:18;3.83;;;0.90;;
13698;SDS011;6921;53.642;9.956;2023-07-20T12:06:22;4.43;;;0.90;;
13698;SDS011;6921;53.642;9.956;2023-07-20T12:08:30;2.88;;;1.20;;
13698;SDS011;6921;53.642;9.956;2023-07-20T12:10:38;2.85;;;1.08;;
13698;SDS011;6921;53.642;9.956;2023-07-20T12:12:45;3.50;;;1.10;;
13698;SDS011;6921;53.642;9.956;2023-07-20T12:14:48;4.18;;;1.10;;
13698;SDS011;6921;53.642;9.956;2023-07-20T12:16:52;3.00;;;1.00;;
13698;SDS011;6921;53.642;9.956;2023-07-20T12:19:00;3.58;;;1.10;;
13698;SDS011;6921;53.642;9.956;2023-07-20T12:21:08;2.33;;;1.20;;
13698;SDS011;6921;53.642;9.956;2023-07-20T12:23:15;3.08;;;1.05;;
13698;SDS011;6921;53.642;9.956;2023-07-20T12:25:18;3.83;;;1.50;;
13698;SDS011;6921;53.642;9.956;2023-07-20T12:27:22;6.00;;;1.50;;
13698;SDS011;6921;53.642;9.956;2023-07-20T12:29:30;4.38;;;1.38;;
13698;SDS011;6921;53.642;9.956;2023-07-20T12:31:37;2.25;;;1.08;;
13698;SDS011;6921;53.642;9.956;2023-07-20T12:33:41;4.82;;;1.40;;
13698;SDS011;6921;53.642;9.956;2023-07-20T12:35:43;3.55;;;1.30;;
13698;SDS011;6921;53.642;9.956;2023-07-20T12:37:48;3.65;;;1.30;;
13698;SDS011;6921;53.642;9.956;2023-07-20T12:39:52;4.93;;;1.20;;
13698;SDS011;6921;53.642;9.956;2023-07-20T12:42:00;4.50;;;1.30;;
13698;SDS011;6921;53.642;9.956;2023-07-20T12:44:04;5.32;;;1.50;;
13698;SDS011;6921;53.642;9.956;2023-07-20T12:46:09;3.15;;;1.00;;
13698;SDS011;6921;53.642;9.956;2023-07-20T12:48:14;4.57;;;1.30;;
13698;SDS011;6921;53.642;9.956;2023-07-20T12:50:17;4.88;;;1.08;;
13698;SDS011;6921;53.642;9.956;2023-07-20T12:52:21;3.95;;;1.00;;